Time;durP1;ratioP1;P1;durP2;ratioP2;P2;SDS_P1;SDS_P2;PMS_P1;PMS_P2;Temp;Humidity;BMP_temperature;BMP_pressure;BME280_temperature;BME280_humidity;BME280_pressure;Samples;Min_cycle;Max_cycle;Signal;HPM_P1;HPM_P2
2023/07/05 00:00:17;;;;;;;5.85;2.58;;;16.60;96.30;;;;;;4876235;28;92841;-75
2023/07/05 00:02:42;;;;;;;5.22;2.67;;;16.60;96.30;;;;;;4875511;28;92644;-75
2023/07/05 00:05:08;;;;;;;4.40;2.22;;;16.60;96.50;;;;;;4874302;28;94232;-75
2023/07/05 00:07:34;;;;;;;4.82;2.47;;;16.70;96.60;;;;;;4874569;28;93859;-75
2023/07/05 00:09:59;;;;;;;6.95;2.42;;;16.70;96.80;;;;;;4875667;28;92302;-75
2023/07/05 00:12:25;;;;;;;10.05;2.50;;;16.70;96.80;;;;;;4875782;28;92064;-75
2023/07/05 00:14:51;;;;;;;4.35;2.42;;;16.70;96.90;;;;;;4873479;28;92786;-75
2023/07/05 00:17:16;;;;;;;4.63;2.53;;;16.70;97.10;;;;;;4875208;28;93245;-75
2023/07/05 00:19:42;;;;;;;4.20;2.50;;;16.70;97.10;;;;;;4875567;28;93734;-75
2023/07/05 00:22:08;;;;;;;4.47;2.20;;;16.70;97.30;;;;;;4875689;28;93054;-75
2023/07/05 00:24:34;;;;;;;3.80;2.55;;;16.80;97.10;;;;;;4874898;28;93652;-75
2023/07/05 00:26:59;;;;;;;3.92;2.05;;;16.90;97.00;;;;;;4875326;28;97889;-75
2023/07/05 00:29:26;;;;;;;3.65;2.05;;;16.90;97.10;;;;;;4874803;28;92859;-75
2023/07/05 00:31:52;;;;;;;4.65;2.00;;;17.00;97.20;;;;;;4874858;28;92948;-75
2023/07/05 00:34:18;;;;;;;4.43;1.98;;;17.00;97.00;;;;;;4874082;28;93177;-75
2023/07/05 00:36:44;;;;;;;8.10;2.03;;;17.10;97.00;;;;;;4873653;28;94119;-75
2023/07/05 00:39:09;;;;;;;3.90;1.88;;;17.10;97.10;;;;;;4873871;28;92519;-75
2023/07/05 00:41:35;;;;;;;3.28;1.98;;;17.10;97.40;;;;;;4873475;28;92905;-75
2023/07/05 00:44:01;;;;;;;4.78;2.00;;;17.10;97.30;;;;;;4871543;28;95315;-75
2023/07/05 00:46:30;;;;;;;5.72;2.35;;;17.20;97.40;;;;;;4873757;28;94323;-75
2023/07/05 00:49:14;;;;;;;3.78;2.20;;;17.10;97.60;;;;;;4872962;28;92937;-75
2023/07/05 00:51:47;;;;;;;;;;;17.10;97.70;;;;;;4865469;28;92805;-75
2023/07/05 00:54:16;;;;;;;2.80;1.52;;;17.10;97.90;;;;;;4875560;28;93379;-75
2023/07/05 00:56:53;;;;;;;1.73;1.08;;;17.10;97.90;;;;;;4873956;28;92712;-75
2023/07/05 00:59:23;;;;;;;2.58;1.30;;;17.10;96.10;;;;;;4873640;28;92801;-75
2023/07/05 01:01:49;;;;;;;3.20;1.27;;;17.10;95.60;;;;;;4874205;28;100144;-75
2023/07/05 01:04:15;;;;;;;3.25;1.08;;;17.10;95.50;;;;;;4874200;28;94448;-75
2023/07/05 01:06:43;;;;;;;1.98;1.00;;;17.10;93.80;;;;;;4874072;28;93077;-76
2023/07/05 01:09:08;;;;;;;2.55;1.25;;;17.00;94.20;;;;;;4872867;28;93832;-75
2023/07/05 01:11:52;;;;;;;2.60;0.90;;;17.00;93.90;;;;;;4872481;28;93622;-75
2023/07/05 01:14:22;;;;;;;1.70;0.80;;;16.90;93.70;;;;;;4874413;28;93710;-75
2023/07/05 01:17:13;;;;;;;2.00;1.00;;;16.90;93.70;;;;;;4873096;28;93447;-75
2023/07/05 01:20:10;;;;;;;4.47;0.82;;;16.80;93.20;;;;;;4873996;28;93045;-75
2023/07/05 01:22:54;;;;;;;1.65;1.02;;;16.80;93.30;;;;;;4873600;28;93093;-75
2023/07/05 01:25:52;;;;;;;1.88;0.88;;;16.70;92.70;;;;;;4873416;28;93036;-75
2023/07/05 01:28:56;;;;;;;1.77;0.80;;;16.60;92.60;;;;;;4873158;28;92680;-75
2023/07/05 01:31:54;;;;;;;3.40;0.55;;;16.50;92.10;;;;;;4874057;28;92538;-75
2023/07/05 01:34:43;;;;;;;2.97;0.60;;;16.40;92.20;;;;;;4874076;28;92687;-75
2023/07/05 01:37:23;;;;;;;7.20;0.90;;;16.40;92.00;;;;;;4873158;28;94695;-76
2023/07/05 01:39:48;;;;;;;1.13;0.70;;;16.30;92.00;;;;;;4873110;28;94245;-75
2023/07/05 01:42:14;;;;;;;2.08;0.60;;;16.20;92.30;;;;;;4875432;28;92727;-75
2023/07/05 01:44:40;;;;;;;3.72;1.25;;;16.10;92.70;;;;;;4874115;28;92864;-75
2023/07/05 01:47:15;;;;;;;2.33;0.70;;;16.10;92.60;;;;;;4873955;28;94113;-75
2023/07/05 01:50:21;;;;;;;2.00;1.00;;;16.10;92.20;;;;;;4874126;28;93353;-75
2023/07/05 01:53:07;;;;;;;1.52;0.80;;;16.00;92.00;;;;;;4857482;28;92891;-75
2023/07/05 01:55:43;;;;;;;3.00;1.02;;;15.90;91.90;;;;;;4873770;28;92071;-75
2023/07/05 01:58:18;;;;;;;1.70;0.90;;;15.80;91.70;;;;;;4873755;28;93832;-75
2023/07/05 02:00:46;;;;;;;4.13;1.23;;;15.70;91.70;;;;;;4874452;28;92923;-75
2023/07/05 02:03:17;;;;;;;4.57;1.88;;;15.70;92.00;;;;;;4875619;28;93630;-75
2023/07/05 02:05:43;;;;;;;3.85;1.20;;;15.60;92.10;;;;;;4845720;28;92652;-75
2023/07/05 02:08:09;;;;;;;2.38;1.40;;;15.50;92.40;;;;;;4873428;28;94017;-75
2023/07/05 02:10:35;;;;;;;3.47;1.52;;;15.40;92.50;;;;;;4873964;28;93567;-75
2023/07/05 02:13:03;;;;;;;3.50;1.85;;;15.40;92.40;;;;;;4875012;28;92765;-75
2023/07/05 02:15:29;;;;;;;4.72;1.48;;;15.30;92.80;;;;;;4858931;28;92738;-76
2023/07/05 02:17:55;;;;;;;3.47;1.88;;;15.10;92.50;;;;;;4873854;28;93774;-75
2023/07/05 02:20:20;;;;;;;4.88;2.22;;;15.10;93.00;;;;;;4874312;28;93229;-75
2023/07/05 02:22:46;;;;;;;5.43;1.75;;;15.00;93.00;;;;;;4877855;28;93329;-75
2023/07/05 02:25:12;;;;;;;4.65;1.90;;;15.00;93.10;;;;;;4877238;28;93011;-76
2023/07/05 02:27:37;;;;;;;7.50;2.00;;;14.90;93.30;;;;;;4877633;28;94577;-75
2023/07/05 02:30:05;;;;;;;4.95;2.00;;;14.80;93.40;;;;;;4879740;28;94043;-75
2023/07/05 02:32:31;;;;;;;3.95;2.03;;;14.80;93.30;;;;;;4878088;28;92654;-75
2023/07/05 02:35:00;;;;;;;3.13;1.75;;;14.70;93.30;;;;;;4877775;28;92644;-75
2023/07/05 02:37:25;;;;;;;4.90;2.08;;;14.70;93.60;;;;;;4877591;28;93081;-75
2023/07/05 02:39:52;;;;;;;6.63;2.08;;;14.60;93.70;;;;;;4877066;28;92901;-75
2023/07/05 02:42:18;;;;;;;5.38;1.83;;;14.60;93.40;;;;;;4877860;28;92829;-75
2023/07/05 02:44:47;;;;;;;5.35;2.22;;;14.60;93.60;;;;;;4876377;28;92217;-75
2023/07/05 02:47:12;;;;;;;6.88;2.30;;;14.60;93.70;;;;;;4876416;28;93913;-75
2023/07/05 02:49:38;;;;;;;6.68;2.70;;;14.50;93.50;;;;;;4875362;28;94945;-75
2023/07/05 02:52:04;;;;;;;5.40;2.45;;;14.50;93.70;;;;;;4876929;28;93869;-75
2023/07/05 02:54:29;;;;;;;5.13;1.95;;;14.50;93.60;;;;;;4879005;28;92558;-75
2023/07/05 02:56:55;;;;;;;5.55;2.58;;;14.40;93.50;;;;;;4877150;28;93737;-75
2023/07/05 02:59:21;;;;;;;8.30;2.45;;;14.50;93.50;;;;;;4876672;28;93304;-75
2023/07/05 03:01:47;;;;;;;8.05;3.00;;;14.40;93.40;;;;;;4877029;28;92854;-75
2023/07/05 03:04:13;;;;;;;6.70;2.55;;;14.40;93.20;;;;;;4876528;28;92960;-75
2023/07/05 03:06:39;;;;;;;8.68;2.75;;;14.40;93.10;;;;;;4876117;28;96872;-75
2023/07/05 03:09:05;;;;;;;7.68;3.22;;;14.40;93.20;;;;;;4877155;28;94042;-75
2023/07/05 03:11:30;;;;;;;4.80;2.70;;;14.40;93.10;;;;;;4877195;28;92995;-75
2023/07/05 03:13:56;;;;;;;8.25;2.78;;;14.40;93.20;;;;;;4876086;28;92865;-75
2023/07/05 03:16:22;;;;;;;7.72;2.90;;;14.40;93.20;;;;;;4875494;28;94307;-75
2023/07/05 03:18:47;;;;;;;6.82;3.10;;;14.40;93.10;;;;;;4876507;28;93962;-75
2023/07/05 03:21:13;;;;;;;6.93;2.85;;;14.40;93.30;;;;;;4877091;28;93182;-74
2023/07/05 03:23:38;;;;;;;5.32;2.97;;;14.40;93.10;;;;;;4877314;28;93985;-75
2023/07/05 03:26:09;;;;;;;6.47;3.28;;;14.40;93.10;;;;;;4876489;28;94325;-75
2023/07/05 03:28:36;;;;;;;6.32;3.13;;;14.40;92.80;;;;;;4876401;28;94270;-76
2023/07/05 03:31:04;;;;;;;7.00;3.58;;;14.40;92.90;;;;;;4860151;28;92473;-75
2023/07/05 03:33:31;;;;;;;10.18;3.85;;;14.40;92.70;;;;;;4876574;28;91912;-75
2023/07/05 03:35:58;;;;;;;10.65;3.50;;;14.40;92.20;;;;;;4876910;28;93704;-75
2023/07/05 03:38:25;;;;;;;5.28;3.10;;;14.40;92.60;;;;;;4876818;28;92888;-76
2023/07/05 03:41:08;;;;;;;7.32;4.28;;;14.40;92.20;;;;;;4876054;28;93702;-76
2023/07/05 03:43:35;;;;;;;8.50;3.70;;;14.40;92.00;;;;;;4875809;28;93092;-76
2023/07/05 03:46:03;;;;;;;5.35;3.55;;;14.40;92.20;;;;;;4876336;28;93976;-75
2023/07/05 03:48:33;;;;;;;10.18;4.28;;;14.40;91.80;;;;;;4876919;28;93431;-75
2023/07/05 03:50:59;;;;;;;10.02;3.30;;;14.40;91.90;;;;;;4877604;28;92763;-75
2023/07/05 03:53:25;;;;;;;7.93;3.75;;;14.40;92.20;;;;;;4877034;28;92617;-75
2023/07/05 03:55:51;;;;;;;8.98;4.78;;;14.40;92.20;;;;;;4877016;28;93700;-75
2023/07/05 03:58:17;;;;;;;9.68;4.32;;;14.40;92.20;;;;;;4875931;28;93387;-75
2023/07/05 04:00:43;;;;;;;7.25;3.95;;;14.40;92.30;;;;;;4877542;28;92580;-75
2023/07/05 04:03:08;;;;;;;8.38;4.18;;;14.40;92.40;;;;;;4878063;28;93112;-75
2023/07/05 04:05:34;;;;;;;8.52;4.18;;;14.30;92.30;;;;;;4876885;28;95248;-76
2023/07/05 04:08:00;;;;;;;7.78;3.88;;;14.40;92.10;;;;;;4875732;28;93849;-76
2023/07/05 04:10:26;;;;;;;10.77;4.38;;;14.30;92.00;;;;;;4875969;28;92641;-75
2023/07/05 04:12:52;;;;;;;9.43;4.53;;;14.30;91.80;;;;;;4875260;28;92932;-75
2023/07/05 04:15:18;;;;;;;8.00;3.80;;;14.30;91.90;;;;;;4877794;28;93349;-75
2023/07/05 04:17:44;;;;;;;5.30;3.40;;;14.30;91.50;;;;;;4875795;28;94246;-75
2023/07/05 04:20:10;;;;;;;7.40;4.30;;;14.30;91.60;;;;;;4876204;28;92604;-75
2023/07/05 04:22:39;;;;;;;7.47;3.53;;;14.30;91.60;;;;;;4876407;28;92015;-76
2023/07/05 04:25:05;;;;;;;7.85;3.90;;;14.30;91.40;;;;;;4875167;28;93924;-75
2023/07/05 04:27:30;;;;;;;5.65;3.20;;;14.30;91.40;;;;;;4877380;28;92942;-76
2023/07/05 04:29:56;;;;;;;8.18;4.38;;;14.30;91.30;;;;;;4876668;28;93891;-75
2023/07/05 04:32:21;;;;;;;9.55;3.47;;;14.30;91.40;;;;;;4876495;28;92328;-75
2023/07/05 04:34:47;;;;;;;6.30;3.67;;;14.30;91.20;;;;;;4876196;28;93906;-75
2023/07/05 04:37:12;;;;;;;10.30;3.35;;;14.30;91.30;;;;;;4876149;28;93257;-75
2023/07/05 04:39:38;;;;;;;6.90;4.00;;;14.30;91.30;;;;;;4876421;28;92782;-75
2023/07/05 04:42:04;;;;;;;8.88;3.80;;;14.30;91.40;;;;;;4876590;28;92719;-75
2023/07/05 04:44:30;;;;;;;6.72;3.22;;;14.30;91.30;;;;;;4875070;28;94072;-75
2023/07/05 04:46:55;;;;;;;7.88;3.20;;;14.30;91.10;;;;;;4876426;28;93310;-75
2023/07/05 04:49:21;;;;;;;10.88;3.55;;;14.20;90.90;;;;;;4876482;28;92512;-76
2023/07/05 04:51:46;;;;;;;9.27;3.30;;;14.20;91.00;;;;;;4876571;28;92695;-75
2023/07/05 04:54:14;;;;;;;11.45;3.35;;;14.20;91.10;;;;;;4876234;28;95404;-75
2023/07/05 04:56:39;;;;;;;9.65;3.78;;;14.20;90.60;;;;;;4875944;28;92799;-76
2023/07/05 04:59:05;;;;;;;7.43;2.63;;;14.20;90.00;;;;;;4877552;28;92666;-76
2023/07/05 05:01:31;;;;;;;7.22;2.70;;;14.20;90.20;;;;;;4876113;28;93151;-75
2023/07/05 05:03:56;;;;;;;7.57;3.00;;;14.20;90.00;;;;;;4875884;28;93126;-75
2023/07/05 05:06:22;;;;;;;4.97;2.20;;;14.30;90.30;;;;;;4875645;28;93351;-75
2023/07/05 05:08:47;;;;;;;7.80;2.78;;;14.30;90.00;;;;;;4876005;28;92823;-75
2023/07/05 05:11:13;;;;;;;9.25;1.85;;;14.20;89.90;;;;;;4876043;28;92274;-75
2023/07/05 05:13:39;;;;;;;5.85;2.10;;;14.20;89.70;;;;;;4874837;28;93608;-75
2023/07/05 05:16:05;;;;;;;6.20;1.90;;;14.20;89.80;;;;;;4875974;28;93257;-75
2023/07/05 05:18:33;;;;;;;5.63;1.77;;;14.20;90.00;;;;;;4876263;28;93887;-75
2023/07/05 05:20:59;;;;;;;7.63;2.67;;;14.20;89.60;;;;;;4875595;28;92343;-75
2023/07/05 05:23:25;;;;;;;8.55;2.55;;;14.20;90.00;;;;;;4875565;28;93837;-75
2023/07/05 05:25:51;;;;;;;7.50;2.42;;;14.30;90.10;;;;;;4874538;28;93378;-75
2023/07/05 05:28:17;;;;;;;4.35;2.40;;;14.30;89.80;;;;;;4874350;28;93474;-75
2023/07/05 05:30:45;;;;;;;10.40;2.88;;;14.30;90.00;;;;;;4875863;28;92792;-75
2023/07/05 05:33:12;;;;;;;8.70;2.10;;;14.30;89.90;;;;;;4875187;28;93821;-75
2023/07/05 05:35:37;;;;;;;10.27;2.65;;;14.30;90.00;;;;;;4875129;28;92206;-76
2023/07/05 05:38:04;;;;;;;7.20;2.17;;;14.30;90.20;;;;;;4875462;28;93154;-76
2023/07/05 05:40:32;;;;;;;6.47;2.38;;;14.30;90.20;;;;;;4876099;28;93009;-75
2023/07/05 05:42:57;;;;;;;5.78;2.00;;;14.20;90.40;;;;;;4874186;28;94120;-75
2023/07/05 05:45:23;;;;;;;5.18;2.45;;;14.30;90.60;;;;;;4874772;28;94265;-76
2023/07/05 05:47:49;;;;;;;6.75;2.17;;;14.30;90.20;;;;;;4874701;28;92757;-78
2023/07/05 05:50:15;;;;;;;4.40;1.83;;;14.40;90.20;;;;;;4874971;28;92956;-77
2023/07/05 05:52:41;;;;;;;7.97;2.00;;;14.40;90.50;;;;;;4876512;28;92710;-77
2023/07/05 05:55:07;;;;;;;8.65;2.10;;;14.40;90.30;;;;;;4875405;28;92953;-77
2023/07/05 05:57:33;;;;;;;8.90;2.50;;;14.40;90.20;;;;;;4875767;28;92945;-76
2023/07/05 05:59:58;;;;;;;6.22;2.10;;;14.40;90.40;;;;;;4858799;28;91645;-76
2023/07/05 06:02:24;;;;;;;7.50;2.40;;;14.40;90.50;;;;;;4876591;28;92689;-77
2023/07/05 06:04:50;;;;;;;11.40;2.65;;;14.40;90.30;;;;;;4875871;28;93459;-77
2023/07/05 06:07:16;;;;;;;7.65;1.80;;;14.50;90.10;;;;;;4875435;28;93869;-77
2023/07/05 06:09:48;;;;;;;9.20;2.30;;;14.50;90.40;;;;;;4874246;28;92997;-77
2023/07/05 06:12:15;;;;;;;5.60;1.95;;;14.50;90.30;;;;;;4875595;28;93738;-78
2023/07/05 06:14:41;;;;;;;6.35;1.77;;;14.50;90.20;;;;;;4875791;28;93554;-77
2023/07/05 06:17:07;;;;;;;5.93;1.90;;;14.50;90.20;;;;;;4875821;28;92770;-77
2023/07/05 06:19:32;;;;;;;4.65;1.48;;;14.60;90.30;;;;;;4874514;28;93169;-77
2023/07/05 06:21:59;;;;;;;4.82;1.70;;;14.60;89.70;;;;;;4875394;28;93787;-76
2023/07/05 06:24:25;;;;;;;4.82;1.58;;;14.60;90.10;;;;;;4875463;28;93406;-78
2023/07/05 06:26:50;;;;;;;6.55;2.20;;;14.60;90.10;;;;;;4874833;28;92694;-77
2023/07/05 06:29:16;;;;;;;5.43;1.80;;;14.60;90.30;;;;;;4875026;28;93387;-77
2023/07/05 06:31:42;;;;;;;7.90;1.30;;;14.60;90.30;;;;;;4874530;28;94327;-77
2023/07/05 06:34:07;;;;;;;9.80;1.58;;;14.60;90.00;;;;;;4874684;28;94429;-77
2023/07/05 06:36:33;;;;;;;3.65;1.23;;;14.70;89.90;;;;;;4876417;28;92690;-76
2023/07/05 06:38:58;;;;;;;7.95;1.45;;;14.70;90.00;;;;;;4874737;28;92293;-77
2023/07/05 06:41:24;;;;;;;9.10;1.65;;;14.70;89.60;;;;;;4875316;28;94482;-77
2023/07/05 06:43:49;;;;;;;5.95;1.48;;;14.70;90.10;;;;;;4863851;28;96695;-77
2023/07/05 06:46:15;;;;;;;4.93;1.42;;;14.80;88.80;;;;;;4875357;28;92877;-77
2023/07/05 06:48:41;;;;;;;2.65;1.23;;;14.80;88.90;;;;;;4875341;28;92183;-77
2023/07/05 06:51:06;;;;;;;4.63;1.15;;;14.90;88.60;;;;;;4876223;28;92772;-77
2023/07/05 06:53:32;;;;;;;7.70;1.48;;;14.90;88.10;;;;;;4875276;28;94106;-77
2023/07/05 06:55:58;;;;;;;5.05;1.17;;;14.90;87.50;;;;;;4875436;28;93499;-77
2023/07/05 06:58:23;;;;;;;4.70;1.10;;;15.00;87.40;;;;;;4875822;28;92312;-77
2023/07/05 07:00:50;;;;;;;7.88;1.27;;;15.10;86.60;;;;;;4874182;28;93295;-77
2023/07/05 07:03:17;;;;;;;3.58;1.35;;;15.20;86.50;;;;;;4875675;28;93979;-77
2023/07/05 07:05:54;;;;;;;5.28;1.63;;;15.30;85.30;;;;;;4875162;28;92552;-77
2023/07/05 07:08:21;;;;;;;6.57;1.52;;;15.40;86.40;;;;;;4875845;28;93157;-77
2023/07/05 07:10:47;;;;;;;9.65;1.58;;;15.50;84.80;;;;;;4877989;28;93457;-77
2023/07/05 07:13:14;;;;;;;11.00;1.80;;;15.60;84.30;;;;;;4878945;28;93410;-77
2023/07/05 07:15:41;;;;;;;7.10;1.50;;;15.60;83.40;;;;;;4878197;28;92579;-77
2023/07/05 07:18:07;;;;;;;5.35;1.13;;;15.70;83.90;;;;;;4876305;28;93543;-77
2023/07/05 07:20:33;;;;;;;6.40;1.38;;;15.80;84.60;;;;;;4877497;28;96051;-79
2023/07/05 07:22:59;;;;;;;4.78;1.10;;;15.80;83.10;;;;;;4869632;28;95622;-78
2023/07/05 07:25:25;;;;;;;3.60;0.98;;;15.90;83.50;;;;;;4877786;28;92762;-78
2023/07/05 07:27:50;;;;;;;6.03;1.17;;;15.90;82.60;;;;;;4878014;28;92556;-78
2023/07/05 07:30:16;;;;;;;7.75;1.35;;;16.00;82.10;;;;;;4860714;28;95740;-76
2023/07/05 07:32:47;;;;;;;4.68;1.05;;;16.10;82.50;;;;;;4876966;28;93248;-77
2023/07/05 07:35:14;;;;;;;4.40;1.00;;;16.20;82.30;;;;;;4877199;28;94251;-77
2023/07/05 07:37:40;;;;;;;7.80;1.45;;;16.30;82.20;;;;;;4877158;28;92074;-77
2023/07/05 07:40:08;;;;;;;4.63;1.40;;;16.40;80.90;;;;;;4877764;28;93672;-77
2023/07/05 07:42:34;;;;;;;5.95;1.23;;;16.50;79.70;;;;;;4869222;28;96241;-77
2023/07/05 07:45:00;;;;;;;5.43;1.10;;;16.60;78.60;;;;;;4876915;28;94012;-77
2023/07/05 07:47:25;;;;;;;5.80;1.38;;;16.70;80.50;;;;;;4877855;28;92921;-77
2023/07/05 07:49:51;;;;;;;8.68;1.35;;;16.80;81.20;;;;;;4876843;28;93202;-77
2023/07/05 07:52:18;;;;;;;3.15;1.00;;;16.80;77.90;;;;;;4878483;28;93255;-77
2023/07/05 07:54:44;;;;;;;6.68;1.17;;;16.70;79.80;;;;;;4877279;28;92551;-77
2023/07/05 07:57:09;;;;;;;7.82;1.90;;;16.80;79.70;;;;;;4878658;28;92921;-77
2023/07/05 07:59:40;;;;;;;7.35;1.65;;;16.80;79.70;;;;;;4876915;28;93487;-77
2023/07/05 08:02:10;;;;;;;9.00;1.25;;;16.80;78.00;;;;;;4876388;28;92541;-77
2023/07/05 08:04:47;;;;;;;7.68;1.50;;;16.80;79.10;;;;;;4877659;28;93054;-77
2023/07/05 08:07:14;;;;;;;12.95;2.35;;;17.10;79.00;;;;;;4876422;28;92513;-77
2023/07/05 08:09:40;;;;;;;6.55;1.15;;;17.20;77.90;;;;;;4858915;28;97669;-77
2023/07/05 08:12:06;;;;;;;6.80;1.50;;;17.30;75.80;;;;;;4877621;28;94089;-77
2023/07/05 08:14:32;;;;;;;8.25;1.50;;;17.40;75.70;;;;;;4859271;28;92787;-77
2023/07/05 08:16:57;;;;;;;8.23;1.60;;;17.40;74.70;;;;;;4877654;28;92677;-77
2023/07/05 08:19:23;;;;;;;6.97;1.40;;;17.30;76.60;;;;;;4877508;28;93760;-77
2023/07/05 08:21:49;;;;;;;9.75;1.48;;;17.40;76.10;;;;;;4877513;28;93753;-77
2023/07/05 08:24:16;;;;;;;8.95;1.33;;;17.50;75.50;;;;;;4878107;28;92122;-77
2023/07/05 08:26:41;;;;;;;7.25;1.27;;;17.60;75.30;;;;;;4875440;28;92075;-77
2023/07/05 08:29:08;;;;;;;9.02;1.27;;;17.70;73.70;;;;;;4858850;28;96167;-77
2023/07/05 08:31:34;;;;;;;9.23;1.23;;;17.70;72.80;;;;;;4876081;28;93045;-77
2023/07/05 08:34:01;;;;;;;5.93;1.52;;;17.70;72.70;;;;;;4866579;28;93533;-77
2023/07/05 08:36:35;;;;;;;10.02;1.05;;;17.80;74.00;;;;;;4876806;28;92707;-77
2023/07/05 08:39:03;;;;;;;7.28;1.30;;;17.80;70.60;;;;;;4875261;28;98491;-77
2023/07/05 08:41:37;;;;;;;8.98;1.45;;;17.90;72.40;;;;;;4875245;28;93478;-77
2023/07/05 08:44:27;;;;;;;8.02;1.20;;;18.00;71.00;;;;;;4875244;28;92269;-77
2023/07/05 08:47:08;;;;;;;6.45;1.02;;;18.00;70.20;;;;;;4876062;28;93325;-77
2023/07/05 08:50:05;;;;;;;6.20;1.05;;;18.00;70.20;;;;;;4875415;28;94143;-77
2023/07/05 08:52:39;;;;;;;8.25;1.23;;;18.10;69.80;;;;;;4877058;28;93742;-77
2023/07/05 08:55:08;;;;;;;5.75;1.60;;;18.30;69.10;;;;;;4876213;28;92351;-77
2023/07/05 08:57:46;;;;;;;5.93;1.35;;;18.40;66.00;;;;;;4859575;28;92923;-77
2023/07/05 09:00:15;;;;;;;5.75;1.40;;;18.40;66.50;;;;;;4875776;28;98461;-77
2023/07/05 09:02:40;;;;;;;14.70;1.67;;;18.40;68.50;;;;;;4875275;28;95571;-77
2023/07/05 09:05:16;;;;;;;4.35;1.00;;;18.40;66.50;;;;;;4875898;28;92763;-77
2023/07/05 09:07:44;;;;;;;7.72;1.30;;;18.50;66.00;;;;;;4875168;28;93174;-77
2023/07/05 09:10:10;;;;;;;8.10;1.05;;;18.60;66.80;;;;;;4875528;28;93682;-77
2023/07/05 09:12:52;;;;;;;5.45;1.15;;;18.60;67.60;;;;;;4875119;28;94048;-77
2023/07/05 09:15:25;;;;;;;6.38;1.13;;;18.80;65.50;;;;;;4875851;28;92935;-77
2023/07/05 09:17:59;;;;;;;7.97;2.03;;;18.70;64.70;;;;;;4875923;28;92067;-77
2023/07/05 09:20:49;;;;;;;7.15;1.10;;;18.60;64.70;;;;;;4875206;28;93708;-77
2023/07/05 09:23:42;;;;;;;5.65;0.93;;;18.70;64.20;;;;;;4875628;28;93805;-77
2023/07/05 09:26:14;;;;;;;9.18;1.30;;;18.70;66.00;;;;;;4872684;28;94245;-77
2023/07/05 09:28:54;;;;;;;8.37;1.07;;;18.90;65.00;;;;;;4874998;28;92609;-78
2023/07/05 09:31:23;;;;;;;7.22;1.20;;;18.90;63.50;;;;;;4865800;28;96430;-77
2023/07/05 09:33:58;;;;;;;9.32;1.65;;;18.90;64.80;;;;;;4858841;28;95841;-77
2023/07/05 09:36:26;;;;;;;6.38;1.27;;;19.10;64.30;;;;;;4876699;28;92470;-77
2023/07/05 09:38:57;;;;;;;6.53;1.00;;;19.10;63.50;;;;;;4875086;28;92777;-77
2023/07/05 09:41:46;;;;;;;5.95;1.30;;;19.10;64.30;;;;;;4875345;28;93797;-78
2023/07/05 09:44:12;;;;;;;10.13;1.30;;;19.20;64.70;;;;;;4875854;28;93404;-77
2023/07/05 09:46:38;;;;;;;7.28;1.00;;;19.30;61.80;;;;;;4873558;28;93062;-77
2023/07/05 09:49:16;;;;;;;7.80;1.05;;;19.20;63.50;;;;;;4874086;28;92783;-77
2023/07/05 09:51:45;;;;;;;4.50;1.15;;;19.20;65.00;;;;;;4871065;28;93611;-77
2023/07/05 09:54:17;;;;;;;5.68;1.45;;;19.30;64.20;;;;;;4853796;28;96425;-78
2023/07/05 09:57:04;;;;;;;7.95;1.15;;;19.30;61.40;;;;;;4870724;28;93123;-77
2023/07/05 09:59:31;;;;;;;4.20;0.90;;;19.20;61.90;;;;;;4872167;28;92865;-77
2023/07/05 10:02:19;;;;;;;5.25;0.85;;;19.30;62.70;;;;;;4871378;28;93183;-77
2023/07/05 10:04:50;;;;;;;4.95;0.98;;;19.50;61.40;;;;;;4872272;28;92968;-77
2023/07/05 10:07:55;;;;;;;8.90;1.13;;;19.50;61.70;;;;;;4869247;28;92627;-77
2023/07/05 10:10:26;;;;;;;8.93;1.48;;;19.40;61.90;;;;;;4839216;28;92491;-79
2023/07/05 10:13:00;;;;;;;10.05;1.15;;;19.50;61.60;;;;;;4857449;28;95233;-78
2023/07/05 10:15:26;;;;;;;7.18;1.13;;;19.60;62.20;;;;;;4874678;28;92831;-78
2023/07/05 10:17:54;;;;;;;6.95;1.70;;;19.70;62.90;;;;;;4874479;28;93711;-78
2023/07/05 10:20:23;;;;;;;8.43;1.15;;;19.90;59.50;;;;;;4875258;28;92704;-78
2023/07/05 10:23:01;;;;;;;8.38;1.33;;;20.10;59.20;;;;;;4873162;28;96828;-78
2023/07/05 10:25:33;;;;;;;6.43;1.38;;;20.20;59.80;;;;;;4874068;28;96129;-78
2023/07/05 10:28:00;;;;;;;5.00;1.55;;;20.30;61.00;;;;;;4875925;28;92719;-78
2023/07/05 10:30:27;;;;;;;8.30;2.28;;;20.30;61.00;;;;;;4877156;28;92715;-78
2023/07/05 10:33:25;;;;;;;4.32;1.17;;;20.20;59.80;;;;;;4873709;28;97641;-78
2023/07/05 10:36:03;;;;;;;5.13;1.48;;;20.20;62.30;;;;;;4876281;28;93409;-78
2023/07/05 10:38:39;;;;;;;8.23;1.35;;;20.30;63.10;;;;;;4875027;28;92654;-78
2023/07/05 10:41:20;;;;;;;6.20;1.38;;;20.30;61.20;;;;;;4873962;28;92744;-78
2023/07/05 10:43:59;;;;;;;9.07;1.30;;;20.40;61.60;;;;;;4877407;28;94871;-78
2023/07/05 10:46:26;;;;;;;5.88;1.20;;;20.40;61.40;;;;;;4877225;28;94164;-78
2023/07/05 10:48:53;;;;;;;5.88;1.23;;;20.40;60.90;;;;;;4877875;28;93240;-78
2023/07/05 10:51:23;;;;;;;5.90;1.00;;;20.40;63.10;;;;;;4877728;28;93499;-79
2023/07/05 10:54:14;;;;;;;10.13;1.60;;;20.40;63.70;;;;;;4878267;28;92548;-78
2023/07/05 10:56:43;;;;;;;6.63;1.73;;;20.30;61.50;;;;;;4879324;28;94312;-78
2023/07/05 10:59:39;;;;;;;5.75;1.80;;;20.10;62.30;;;;;;4878660;28;92640;-79
2023/07/05 11:02:33;;;;;;;8.90;1.77;;;20.00;64.20;;;;;;4868888;28;92080;-79
2023/07/05 11:04:59;;;;;;;13.27;1.60;;;20.00;65.20;;;;;;4859388;28;94285;-78
2023/07/05 11:07:26;;;;;;;5.45;1.00;;;20.20;65.70;;;;;;4860040;28;95810;-79
2023/07/05 11:09:52;;;;;;;9.30;1.50;;;20.50;64.10;;;;;;4864423;28;93856;-78
2023/07/05 11:12:20;;;;;;;10.43;2.38;;;20.50;65.80;;;;;;4877125;28;92898;-78
2023/07/05 11:14:48;;;;;;;4.18;1.02;;;20.20;66.40;;;;;;4876868;28;92696;-78
2023/07/05 11:17:33;;;;;;;5.15;1.40;;;20.00;67.90;;;;;;4875765;28;96235;-80
2023/07/05 11:19:59;;;;;;;6.82;1.58;;;20.10;68.70;;;;;;4876878;28;92592;-81
2023/07/05 11:22:45;;;;;;;4.82;1.02;;;20.00;70.70;;;;;;4859193;28;92243;-79
2023/07/05 11:25:15;;;;;;;4.57;1.40;;;20.10;71.30;;;;;;4876142;28;94066;-79
2023/07/05 11:28:02;;;;;;;5.47;1.27;;;20.30;71.40;;;;;;4861116;28;95241;-79
2023/07/05 11:30:46;;;;;;;3.80;1.10;;;20.50;70.20;;;;;;4878060;28;92659;-79
2023/07/05 11:33:15;;;;;;;5.95;1.30;;;20.60;68.50;;;;;;4880005;28;94765;-79
2023/07/05 11:35:53;;;;;;;6.13;1.10;;;20.70;68.60;;;;;;4859188;28;97361;-81
2023/07/05 11:38:40;;;;;;;7.75;1.40;;;20.80;68.60;;;;;;4865982;28;99517;-79
2023/07/05 11:41:29;;;;;;;4.53;1.25;;;21.00;66.70;;;;;;4861558;28;92914;-80
2023/07/05 11:44:00;;;;;;;6.68;1.55;;;21.20;67.00;;;;;;4878437;28;92860;-80
2023/07/05 11:46:48;;;;;;;7.03;1.63;;;21.30;65.80;;;;;;4877102;28;95850;-80
2023/07/05 11:49:28;;;;;;;5.53;1.88;;;21.50;63.80;;;;;;4876088;28;93021;-79
2023/07/05 11:52:07;;;;;;;4.80;1.23;;;21.60;62.80;;;;;;4874304;28;92857;-79
2023/07/05 11:54:44;;;;;;;5.28;1.50;;;21.50;62.10;;;;;;4872775;28;92649;-79
2023/07/05 11:57:12;;;;;;;5.20;1.52;;;21.60;63.90;;;;;;4875029;28;98334;-80
2023/07/05 12:00:21;;;;;;;3.25;1.10;;;21.70;64.10;;;;;;4875840;28;96339;-79
2023/07/05 12:03:07;;;;;;;5.85;1.20;;;21.40;63.00;;;;;;4859204;28;93866;-79
2023/07/05 12:05:33;;;;;;;4.32;0.90;;;21.20;63.70;;;;;;4861110;28;92781;-80
2023/07/05 12:08:12;;;;;;;3.83;1.05;;;21.20;64.60;;;;;;4874807;28;96114;-79
2023/07/05 12:10:40;;;;;;;5.18;1.60;;;21.30;64.60;;;;;;4860019;28;94837;-79
2023/07/05 12:13:07;;;;;;;4.35;1.05;;;21.60;64.90;;;;;;4877188;28;92773;-79
2023/07/05 12:15:37;;;;;;;2.92;1.10;;;21.80;65.80;;;;;;4878191;28;92695;-79
2023/07/05 12:18:04;;;;;;;4.93;1.27;;;21.90;65.10;;;;;;4860706;28;102086;-79
2023/07/05 12:20:42;;;;;;;4.95;1.20;;;22.00;67.60;;;;;;4876962;28;93589;-79
2023/07/05 12:23:16;;;;;;;9.50;1.20;;;22.00;63.80;;;;;;4859412;28;92969;-79
2023/07/05 12:25:51;;;;;;;5.03;1.60;;;22.00;63.80;;;;;;4858142;28;93505;-78
2023/07/05 12:28:23;;;;;;;4.57;1.15;;;22.00;64.10;;;;;;4875878;28;94639;-77
2023/07/05 12:30:54;;;;;;;5.75;1.15;;;22.00;64.60;;;;;;4875678;28;97182;-77
2023/07/05 12:33:26;;;;;;;5.45;1.38;;;22.10;64.50;;;;;;4876504;28;92572;-77
2023/07/05 12:36:12;;;;;;;4.10;1.30;;;22.00;62.70;;;;;;4877057;28;92811;-77
2023/07/05 12:38:48;;;;;;;4.55;0.98;;;21.80;65.00;;;;;;4877818;28;93624;-77
2023/07/05 12:41:25;;;;;;;6.38;1.33;;;21.70;66.70;;;;;;4872290;28;96661;-77
2023/07/05 12:44:17;;;;;;;5.22;1.40;;;21.70;65.80;;;;;;4871086;28;92851;-77
2023/07/05 12:46:43;;;;;;;6.43;1.10;;;21.70;65.50;;;;;;4870255;28;92313;-77
2023/07/05 12:49:11;;;;;;;6.35;1.60;;;21.90;64.00;;;;;;4875021;28;93771;-77
2023/07/05 12:51:58;;;;;;;4.55;1.17;;;22.00;62.50;;;;;;4877159;28;93300;-77
2023/07/05 12:54:24;;;;;;;7.20;1.33;;;22.00;61.80;;;;;;4878116;28;93435;-77
2023/07/05 12:56:53;;;;;;;4.45;1.27;;;22.00;62.00;;;;;;4876910;28;92623;-77
2023/07/05 12:59:37;;;;;;;6.72;1.30;;;21.90;63.00;;;;;;4875957;28;97032;-77
2023/07/05 13:02:04;;;;;;;4.40;1.10;;;21.80;63.30;;;;;;4859465;28;96101;-77